createdAt,value
2022-08-11T00:01:19.588Z,74.90
2022-08-11T00:04:04.513Z,75.00
2022-08-11T00:06:37.484Z,74.80
2022-08-11T00:09:10.778Z,74.90
2022-08-11T00:11:58.683Z,75.00
2022-08-11T00:14:36.801Z,75.00
2022-08-11T00:17:09.567Z,75.10
2022-08-11T00:20:13.086Z,75.50
2022-08-11T00:22:35.517Z,75.90
2022-08-11T00:25:16.031Z,75.90
2022-08-11T00:27:46.913Z,76.00
2022-08-11T00:30:17.893Z,76.20
2022-08-11T00:32:55.352Z,76.30
2022-08-11T00:35:54.808Z,76.20
2022-08-11T00:38:24.159Z,76.60
2022-08-11T00:41:02.445Z,76.50
2022-08-11T00:43:48.691Z,76.30
2022-08-11T00:46:47.434Z,77.00
2022-08-11T00:49:36.347Z,76.50
2022-08-11T00:52:35.366Z,76.70
2022-08-11T00:55:38.452Z,77.20
2022-08-11T00:58:22.515Z,77.30
2022-08-11T01:01:16.767Z,77.70
2022-08-11T01:03:53.673Z,78.10
2022-08-11T01:06:31.263Z,77.60
2022-08-11T01:09:22.313Z,77.90
2022-08-11T01:12:19.940Z,77.60
2022-08-11T01:15:05.130Z,77.90
2022-08-11T01:17:56.531Z,78.70
2022-08-11T01:21:07.067Z,78.50
2022-08-11T01:23:36.849Z,78.80
2022-08-11T01:26:38.115Z,78.80
2022-08-11T01:29:49.221Z,79.90
2022-08-11T01:32:36.160Z,80.00
2022-08-11T01:35:27.671Z,80.40
2022-08-11T01:38:34.406Z,80.90
2022-08-11T01:41:22.514Z,81.50
2022-08-11T01:44:25.565Z,82.50
2022-08-11T01:47:02.194Z,82.90
2022-08-11T01:50:09.886Z,83.40
2022-08-11T01:53:11.032Z,83.80
2022-08-11T01:56:04.474Z,84.60
2022-08-11T01:58:58.551Z,85.00
2022-08-11T02:01:49.695Z,85.50
2022-08-11T02:04:49.637Z,86.00
2022-08-11T02:07:32.655Z,86.50
2022-08-11T02:10:38.175Z,87.40
2022-08-11T02:13:36.729Z,88.10
2022-08-11T02:16:09.946Z,88.10
2022-08-11T02:19:10.260Z,88.80
2022-08-11T02:22:12.875Z,89.50
2022-08-11T02:25:35.812Z,89.50
2022-08-11T02:28:18.910Z,89.70
2022-08-11T02:32:24.540Z,90.10
2022-08-11T02:34:41.618Z,90.30
2022-08-11T02:37:28.295Z,90.40
2022-08-11T02:40:04.709Z,90.80
2022-08-11T02:42:41.555Z,90.90
2022-08-11T02:45:11.411Z,91.10
2022-08-11T02:48:26.154Z,91.40
2022-08-11T02:51:14.636Z,91.50
2022-08-11T02:54:02.382Z,91.60
2022-08-11T02:56:36.848Z,91.60
2022-08-11T02:59:35.653Z,91.80
2022-08-11T03:02:23.914Z,91.60
2022-08-11T03:05:11.185Z,91.90
2022-08-11T03:08:02.996Z,92.10
2022-08-11T03:10:32.944Z,92.30
2022-08-11T03:13:47.049Z,92.60
2022-08-11T03:16:59.679Z,92.90
2022-08-11T03:19:30.323Z,93.30
2022-08-11T03:22:18.734Z,93.50
2022-08-11T03:24:48.439Z,93.60
2022-08-11T03:27:30.031Z,94.00
2022-08-11T03:30:25.806Z,94.00
2022-08-11T03:33:38.230Z,94.30
2022-08-11T03:36:54.517Z,94.40
2022-08-11T03:39:57.211Z,94.70
2022-08-11T03:42:46.480Z,94.90
2022-08-11T03:45:37.395Z,95.10
2022-08-11T03:48:39.104Z,95.50
2022-08-11T03:51:17.887Z,95.40
2022-08-11T03:53:55.302Z,95.70
2022-08-11T03:56:41.864Z,95.70
2022-08-11T03:59:20.582Z,95.70
2022-08-11T04:02:09.406Z,95.80
2022-08-11T04:05:25.837Z,95.50
2022-08-11T04:08:03.335Z,95.90
2022-08-11T04:10:45.434Z,96.30
2022-08-11T04:13:42.251Z,96.40
2022-08-11T04:16:54.139Z,97.00
2022-08-11T04:19:36.412Z,97.20
2022-08-11T04:22:14.946Z,97.60
2022-08-11T04:24:53.184Z,97.90
2022-08-11T04:28:00.922Z,98.00
2022-08-11T04:30:46.564Z,98.50
2022-08-11T04:33:47.058Z,98.70
2022-08-11T04:37:17.575Z,99.10
2022-08-11T04:40:05.748Z,99.60
2022-08-11T04:43:19.874Z,99.70
2022-08-11T04:46:14.257Z,99.80
2022-08-11T04:49:24.268Z,99.90
2022-08-11T04:52:59.030Z,99.90
2022-08-11T04:56:13.441Z,99.90
2022-08-11T05:02:30.395Z,99.90
2022-08-11T05:05:30.389Z,99.90
2022-08-11T05:08:28.739Z,99.90
2022-08-11T05:11:32.382Z,99.90
2022-08-11T05:14:46.053Z,99.90
2022-08-11T05:17:36.024Z,99.90
2022-08-11T05:20:21.904Z,99.90
2022-08-11T05:23:09.274Z,99.90
2022-08-11T05:34:46.330Z,99.90
2022-08-11T05:37:29.671Z,99.90
2022-08-11T05:40:24.209Z,99.90
2022-08-11T05:43:14.696Z,99.90
2022-08-11T05:46:14.963Z,99.70
2022-08-11T05:49:01.537Z,99.40
2022-08-11T05:52:04.860Z,99.30
2022-08-11T05:54:51.533Z,99.00
2022-08-11T05:57:48.589Z,99.20
2022-08-11T06:00:19.438Z,98.90
2022-08-11T06:02:56.566Z,98.80
2022-08-11T06:05:44.089Z,98.50
2022-08-11T06:08:13.011Z,98.00
2022-08-11T06:10:42.406Z,97.90
2022-08-11T06:13:15.864Z,97.80
2022-08-11T06:15:55.219Z,98.50
2022-08-11T06:18:24.845Z,97.60
2022-08-11T06:20:55.875Z,97.10
2022-08-11T06:23:25.229Z,96.90
2022-08-11T06:25:58.074Z,96.30
2022-08-11T06:28:36.214Z,96.20
2022-08-11T06:31:23.603Z,95.70
2022-08-11T06:34:40.277Z,95.40
2022-08-11T06:38:04.701Z,95.70
2022-08-11T06:41:06.277Z,95.40
2022-08-11T06:43:56.017Z,95.00
2022-08-11T06:46:52.410Z,94.80
2022-08-11T06:49:49.888Z,94.70
2022-08-11T06:52:35.700Z,94.80
2022-08-11T06:55:56.952Z,94.10
2022-08-11T06:58:40.536Z,93.80
2022-08-11T07:01:14.295Z,93.00
2022-08-11T07:03:47.766Z,92.80
2022-08-11T07:06:50.560Z,92.40
2022-08-11T07:10:04.348Z,92.70
2022-08-11T07:13:08.298Z,91.70
2022-08-11T07:16:12.672Z,91.90
2022-08-11T07:18:54.065Z,90.90
2022-08-11T07:22:02.374Z,90.30
2022-08-11T07:25:15.152Z,90.40
2022-08-11T07:28:03.104Z,88.10
2022-08-11T07:30:36.786Z,89.00
2022-08-11T07:33:06.628Z,88.20
2022-08-11T07:35:47.594Z,86.90
2022-08-11T07:38:25.301Z,85.60
2022-08-11T07:40:52.410Z,84.90
2022-08-11T07:43:20.411Z,84.50
2022-08-11T07:54:16.983Z,82.60
2022-08-11T07:56:54.721Z,80.90
2022-08-11T08:00:03.612Z,80.90
2022-08-11T08:03:01.380Z,79.70
2022-08-11T08:05:48.656Z,79.10
2022-08-11T08:08:34.712Z,78.10
2022-08-11T08:11:27.474Z,76.80
2022-08-11T08:14:14.006Z,76.60
2022-08-11T08:17:02.340Z,75.70
2022-08-11T08:19:32.604Z,73.50
2022-08-11T08:22:07.125Z,73.40
2022-08-11T08:24:52.665Z,72.10
2022-08-11T08:27:25.016Z,71.80
2022-08-11T08:30:18.254Z,70.70
2022-08-11T08:32:45.075Z,70.80
2022-08-11T08:35:12.003Z,69.20
2022-08-11T08:37:45.719Z,68.80
2022-08-11T08:40:19.700Z,68.50
2022-08-11T08:42:58.999Z,68.30
2022-08-11T08:45:26.693Z,67.80
2022-08-11T08:48:10.264Z,67.20
2022-08-11T08:51:02.998Z,66.60
2022-08-11T08:53:38.728Z,65.30
2022-08-11T08:56:29.466Z,64.80
2022-08-11T08:59:00.252Z,64.60
2022-08-11T09:01:37.221Z,63.40
2022-08-11T09:04:12.356Z,63.70
2022-08-11T09:06:44.801Z,64.80
2022-08-11T09:09:17.730Z,64.40
2022-08-11T09:11:49.913Z,62.50
2022-08-11T09:14:18.231Z,62.10
2022-08-11T09:16:49.047Z,63.10
2022-08-11T09:19:17.736Z,60.70
2022-08-11T09:22:06.193Z,61.10
2022-08-11T09:24:53.824Z,59.60
2022-08-11T09:27:24.384Z,60.30
2022-08-11T09:29:52.530Z,58.40
2022-08-11T09:32:23.263Z,58.50
2022-08-11T09:34:54.535Z,59.00
2022-08-11T09:37:55.178Z,59.30
2022-08-11T09:40:29.983Z,57.90
2022-08-11T09:43:25.188Z,56.70
2022-08-11T09:45:53.327Z,56.00
2022-08-11T09:48:24.887Z,55.40
2022-08-11T09:50:55.997Z,56.50
2022-08-11T09:53:35.873Z,55.80
2022-08-11T09:56:29.940Z,54.90
2022-08-11T09:58:59.163Z,54.20
2022-08-11T10:01:34.928Z,54.30
2022-08-11T10:04:14.659Z,54.10
2022-08-11T10:07:04.529Z,54.40
2022-08-11T10:09:43.456Z,54.40
2022-08-11T10:12:21.082Z,54.70
2022-08-11T10:15:10.940Z,54.40
2022-08-11T10:18:03.581Z,54.50
2022-08-11T10:20:37.050Z,53.90
2022-08-11T10:23:28.316Z,52.70
2022-08-11T10:26:17.249Z,52.10
2022-08-11T10:29:09.985Z,50.60
2022-08-11T10:31:57.607Z,47.50
2022-08-11T10:34:31.969Z,45.60
2022-08-11T10:37:02.338Z,45.90
2022-08-11T10:39:29.374Z,45.70
2022-08-11T10:42:25.771Z,47.10
2022-08-11T10:44:58.094Z,46.10
2022-08-11T10:47:38.702Z,45.20
2022-08-11T10:50:32.789Z,44.90
2022-08-11T10:53:20.761Z,44.70
2022-08-11T10:56:07.385Z,45.00
2022-08-11T10:58:49.346Z,44.80
2022-08-11T11:01:17.781Z,43.20
2022-08-11T11:03:47.267Z,44.10
2022-08-11T11:06:28.360Z,42.50
2022-08-11T11:09:41.286Z,42.90
2022-08-11T11:12:43.216Z,44.40
2022-08-11T11:15:30.921Z,43.40
2022-08-11T11:18:10.932Z,42.30
2022-08-11T11:20:47.645Z,42.50
2022-08-11T11:23:19.752Z,41.30
2022-08-11T11:26:06.836Z,41.60
2022-08-11T11:29:15.596Z,41.70
2022-08-11T11:31:54.342Z,41.30
2022-08-11T11:34:53.027Z,40.70
2022-08-11T11:37:23.006Z,40.00
2022-08-11T11:39:54.541Z,40.50
2022-08-11T11:42:26.486Z,39.40
2022-08-11T11:44:56.013Z,39.80
2022-08-11T11:47:26.481Z,40.70
2022-08-11T11:49:54.678Z,39.80
2022-08-11T11:52:22.777Z,39.90
2022-08-11T11:54:54.751Z,39.00
2022-08-11T11:57:40.729Z,38.20
2022-08-11T12:00:42.973Z,38.60
2022-08-11T12:03:13.919Z,38.00
2022-08-11T12:05:48.263Z,37.60
2022-08-11T12:08:16.945Z,38.10
2022-08-11T12:11:12.903Z,38.00
2022-08-11T12:13:52.294Z,37.20
2022-08-11T12:16:33.499Z,36.50
2022-08-11T12:19:12.635Z,37.80
2022-08-11T12:22:03.371Z,38.30
2022-08-11T12:24:50.587Z,36.70
2022-08-11T12:27:25.575Z,36.00
2022-08-11T12:30:00.616Z,37.70
2022-08-11T12:32:32.369Z,38.00
2022-08-11T12:35:06.639Z,37.20
2022-08-11T12:37:47.843Z,36.40
2022-08-11T12:41:13.830Z,37.10
2022-08-11T12:43:57.137Z,36.60
2022-08-11T12:46:38.240Z,35.70
2022-08-11T12:49:36.302Z,35.20
2022-08-11T12:52:13.261Z,34.80
2022-08-11T12:54:59.726Z,36.50
2022-08-11T12:57:48.118Z,36.10
2022-08-11T13:00:35.322Z,35.40
2022-08-11T13:03:23.964Z,34.90
2022-08-11T13:05:54.421Z,35.00
2022-08-11T13:08:24.777Z,35.20
2022-08-11T13:11:11.738Z,35.00
2022-08-11T13:13:52.763Z,36.00
2022-08-11T13:16:58.930Z,35.20
2022-08-11T13:19:30.001Z,35.00
2022-08-11T13:22:01.642Z,35.00
2022-08-11T13:24:35.281Z,35.50
2022-08-11T13:27:02.529Z,35.20
2022-08-11T13:29:35.737Z,35.10
2022-08-11T13:32:10.668Z,33.90
2022-08-11T13:34:43.537Z,34.20
2022-08-11T13:37:13.753Z,34.10
2022-08-11T13:39:49.759Z,33.60
2022-08-11T13:46:42.923Z,33.70
2022-08-11T13:49:20.924Z,33.20
2022-08-11T13:51:51.795Z,33.00
2022-08-11T13:54:22.658Z,33.30
2022-08-11T13:56:53.391Z,32.30
2022-08-11T13:59:29.548Z,32.60
2022-08-11T14:02:28.189Z,32.40
2022-08-11T14:05:10.755Z,32.50
2022-08-11T14:07:44.501Z,32.60
2022-08-11T14:10:16.431Z,33.40
2022-08-11T14:13:11.810Z,33.50
2022-08-11T14:15:42.242Z,33.30
2022-08-11T14:18:20.512Z,33.70
2022-08-11T14:21:15.077Z,33.30
2022-08-11T14:23:47.489Z,32.10
2022-08-11T14:26:23.164Z,32.60
2022-08-11T14:28:59.899Z,32.50
2022-08-11T14:31:32.009Z,32.30
2022-08-11T14:34:02.629Z,32.40
2022-08-11T14:36:41.370Z,31.80
2022-08-11T14:39:12.441Z,32.20
2022-08-11T14:42:10.425Z,31.70
2022-08-11T14:45:24.629Z,31.60
2022-08-11T14:48:14.184Z,30.90
2022-08-11T14:50:41.094Z,31.60
2022-08-11T14:53:10.433Z,31.80
2022-08-11T14:56:03.097Z,31.30
2022-08-11T14:58:35.632Z,30.90
2022-08-11T15:01:28.646Z,31.70
2022-08-11T15:04:25.094Z,31.70
2022-08-11T15:06:46.434Z,32.50
2022-08-11T15:09:21.983Z,31.60
2022-08-11T15:12:08.080Z,32.80
2022-08-11T15:15:15.974Z,33.10
2022-08-11T15:17:43.955Z,32.20
2022-08-11T15:20:33.300Z,33.30
2022-08-11T15:23:20.027Z,32.00
2022-08-11T15:25:52.585Z,32.50
2022-08-11T15:28:39.743Z,33.40
2022-08-11T15:31:29.855Z,32.60
2022-08-11T15:34:28.830Z,32.30
2022-08-11T15:40:46.602Z,32.70
2022-08-11T15:44:07.387Z,32.10
2022-08-11T15:46:55.328Z,32.70
2022-08-11T15:55:57.236Z,33.20
2022-08-11T15:59:10.755Z,34.90
2022-08-11T16:02:01.541Z,33.30
2022-08-11T16:04:30.455Z,33.50
2022-08-11T16:07:12.783Z,34.30
2022-08-11T16:10:00.479Z,33.60
2022-08-11T16:12:38.599Z,33.50
2022-08-11T16:15:29.149Z,33.60
2022-08-11T16:18:04.609Z,34.20
2022-08-11T16:20:34.154Z,34.50
2022-08-11T16:23:06.306Z,34.90
2022-08-11T16:27:01.849Z,34.80
2022-08-11T16:28:23.774Z,35.10
2022-08-11T16:30:53.222Z,35.40
2022-08-11T16:33:49.440Z,35.60
2022-08-11T16:36:31.282Z,35.40
2022-08-11T16:38:59.662Z,35.10
2022-08-11T16:41:49.294Z,34.90
2022-08-11T16:44:43.416Z,35.50
2022-08-11T16:47:13.344Z,35.40
2022-08-11T16:49:52.537Z,35.10
2022-08-11T16:52:23.123Z,36.00
2022-08-11T16:54:52.988Z,36.30
2022-08-11T16:57:43.402Z,36.10
2022-08-11T17:00:14.197Z,36.50
2022-08-11T17:03:09.135Z,36.00
2022-08-11T17:06:00.032Z,36.90
2022-08-11T17:09:13.951Z,38.20
2022-08-11T17:12:10.289Z,39.10
2022-08-11T17:14:53.518Z,37.50
2022-08-11T17:17:49.310Z,38.40
2022-08-11T17:20:41.298Z,38.00
2022-08-11T17:27:40.600Z,38.60
2022-08-11T17:30:10.132Z,39.10
2022-08-11T17:33:02.206Z,39.20
2022-08-11T17:35:40.279Z,39.60
2022-08-11T17:38:08.565Z,39.00
2022-08-11T17:41:01.081Z,39.20
2022-08-11T17:43:47.953Z,39.50
2022-08-11T17:46:37.347Z,39.70
2022-08-11T17:49:08.629Z,39.40
2022-08-11T17:51:55.735Z,39.70
2022-08-11T17:54:44.978Z,39.90
2022-08-11T17:57:31.868Z,39.90
2022-08-11T18:00:00.022Z,39.90
2022-08-11T18:03:03.938Z,40.30
2022-08-11T18:05:33.830Z,40.10
2022-08-11T18:08:24.472Z,40.80
2022-08-11T18:11:10.973Z,41.20
2022-08-11T18:14:02.305Z,41.70
2022-08-11T18:16:47.921Z,41.00
2022-08-11T18:19:33.571Z,41.00
2022-08-11T18:22:26.542Z,41.30
2022-08-11T18:25:16.617Z,41.50
2022-08-11T18:28:04.465Z,41.20
2022-08-11T18:31:03.755Z,41.70
2022-08-11T18:34:08.978Z,41.60
2022-08-11T18:37:32.854Z,42.30
2022-08-11T18:40:27.663Z,42.10
2022-08-11T18:43:18.501Z,42.30
2022-08-11T18:46:08.235Z,42.20
2022-08-11T18:48:57.326Z,42.80
2022-08-11T18:51:44.345Z,42.80
2022-08-11T18:54:31.617Z,43.10
2022-08-11T19:00:26.277Z,43.70
2022-08-11T19:03:14.485Z,45.20
2022-08-11T19:06:06.188Z,45.70
2022-08-11T19:09:15.485Z,46.50
2022-08-11T19:12:02.916Z,47.30
2022-08-11T19:14:53.324Z,48.70
2022-08-11T19:17:43.564Z,49.60
2022-08-11T19:20:37.965Z,50.20
2022-08-11T19:23:27.738Z,50.90
2022-08-11T19:26:14.899Z,51.50
2022-08-11T19:29:06.968Z,51.80
2022-08-11T19:31:54.972Z,52.70
2022-08-11T19:34:43.136Z,53.40
2022-08-11T19:37:31.420Z,53.80
2022-08-11T19:40:42.461Z,54.30
2022-08-11T19:43:31.161Z,55.10
2022-08-11T19:46:20.188Z,55.80
2022-08-11T19:49:10.732Z,56.60
2022-08-11T19:51:58.038Z,57.20
2022-08-11T19:54:52.351Z,57.50
2022-08-11T19:57:41.359Z,58.00
2022-08-11T20:00:34.358Z,58.50
2022-08-11T20:03:22.841Z,58.80
2022-08-11T20:06:11.689Z,59.10
2022-08-11T20:09:01.453Z,59.50
2022-08-11T20:11:51.532Z,59.50
2022-08-11T20:14:38.936Z,59.90
2022-08-11T20:17:30.153Z,60.10
2022-08-11T20:20:17.838Z,61.00
2022-08-11T20:23:08.511Z,61.10
2022-08-11T20:26:14.086Z,61.70
2022-08-11T20:29:06.816Z,61.70
2022-08-11T20:31:56.495Z,61.80
2022-08-11T20:34:43.013Z,62.30
2022-08-11T20:37:29.856Z,62.60
2022-08-11T20:40:23.709Z,63.10
2022-08-11T20:44:07.916Z,63.80
2022-08-11T20:46:18.540Z,63.70
2022-08-11T20:49:05.667Z,63.90
2022-08-11T20:51:52.878Z,64.20
2022-08-11T20:57:59.425Z,65.20
2022-08-11T21:00:53.546Z,64.80
2022-08-11T21:03:45.260Z,65.10
2022-08-11T21:06:43.020Z,65.40
2022-08-11T21:09:58.756Z,65.90
2022-08-11T21:12:41.217Z,66.20
2022-08-11T21:15:47.296Z,67.00
2022-08-11T21:21:46.684Z,67.70
2022-08-11T21:24:38.613Z,68.30
2022-08-11T21:27:35.787Z,68.70
2022-08-11T21:30:21.408Z,69.50
2022-08-11T21:33:08.054Z,70.10
2022-08-11T21:35:55.942Z,70.20
2022-08-11T21:38:48.860Z,70.90
2022-08-11T21:41:37.766Z,71.00
2022-08-11T21:44:29.596Z,71.20
2022-08-11T21:47:43.205Z,71.30
2022-08-11T21:50:54.487Z,71.30
2022-08-11T21:53:40.867Z,71.30
2022-08-11T21:56:31.227Z,71.30
2022-08-11T21:59:18.608Z,71.50
2022-08-11T22:02:12.030Z,71.90
2022-08-11T22:05:04.412Z,72.50
2022-08-11T22:07:51.956Z,72.80
2022-08-11T22:10:42.560Z,72.90
2022-08-11T22:13:32.542Z,73.30
2022-08-11T22:16:19.998Z,73.20
2022-08-11T22:19:13.351Z,73.10
2022-08-11T22:22:04.263Z,73.20
2022-08-11T22:24:52.737Z,73.10
2022-08-11T22:27:39.037Z,73.30
2022-08-11T22:30:30.291Z,73.30
2022-08-11T22:33:21.182Z,72.70
2022-08-11T22:42:17.829Z,71.50
2022-08-11T22:45:13.030Z,72.40
2022-08-11T22:48:02.868Z,73.20
2022-08-11T22:50:53.455Z,74.00
2022-08-11T22:53:54.957Z,74.00
2022-08-11T22:56:56.535Z,74.00
2022-08-11T23:02:47.996Z,74.30
2022-08-11T23:05:35.863Z,74.80
2022-08-11T23:12:07.933Z,74.90
2022-08-11T23:14:59.420Z,74.90
2022-08-11T23:20:54.712Z,75.20
2022-08-11T23:23:48.936Z,75.80
2022-08-11T23:26:40.877Z,75.90
2022-08-11T23:29:30.058Z,76.00
2022-08-11T23:32:27.040Z,77.00
2022-08-11T23:35:38.788Z,76.40
2022-08-11T23:38:24.368Z,76.90
2022-08-11T23:41:11.071Z,77.90
2022-08-11T23:43:58.372Z,78.10
2022-08-11T23:46:48.771Z,78.70
2022-08-11T23:49:37.533Z,79.60
2022-08-11T23:52:26.730Z,79.60
2022-08-11T23:55:26.385Z,79.60
2022-08-11T23:58:13.046Z,80.50
